createdAt,value
2023-03-23T00:00:15.486Z,69.77
2023-03-23T00:01:15.487Z,70.92
2023-03-23T00:02:15.455Z,71.02
2023-03-23T00:03:15.443Z,72.04
2023-03-23T00:04:15.429Z,71.73
2023-03-23T00:05:16.445Z,72.08
2023-03-23T00:06:15.471Z,71.56
2023-03-23T00:07:15.392Z,71.64
2023-03-23T00:08:15.378Z,71.97
2023-03-23T00:09:15.401Z,72.08
2023-03-23T00:10:15.373Z,72.28
2023-03-23T00:11:15.363Z,71.77
2023-03-23T00:12:15.338Z,72.17
2023-03-23T00:13:15.328Z,71.84
2023-03-23T00:14:15.353Z,72.04
2023-03-23T00:15:15.327Z,71.73
2023-03-23T00:16:15.294Z,71.33
2023-03-23T00:17:15.291Z,71.33
2023-03-23T00:18:15.295Z,71.73
2023-03-23T00:19:15.267Z,71.43
2023-03-23T00:20:15.258Z,71.12
2023-03-23T00:21:15.325Z,71.33
2023-03-23T00:22:23.804Z,71.33
2023-03-23T00:23:15.252Z,71.73
2023-03-23T00:24:15.206Z,71.73
2023-03-23T00:25:15.219Z,72.25
2023-03-23T00:26:15.202Z,72.14
2023-03-23T00:27:15.182Z,72.34
2023-03-23T00:28:15.182Z,72.25
2023-03-23T00:29:15.146Z,71.84
2023-03-23T00:30:15.145Z,72.14
2023-03-23T00:31:15.137Z,72.75
2023-03-23T00:32:15.119Z,72.55
2023-03-23T00:33:15.134Z,72.34
2023-03-23T00:34:15.109Z,73.06
2023-03-23T00:35:15.104Z,72.55
2023-03-23T00:36:15.086Z,73.06
2023-03-23T00:37:15.134Z,72.65
2023-03-23T00:38:15.081Z,72.75
2023-03-23T00:39:15.062Z,73.02
2023-03-23T00:40:15.070Z,72.65
2023-03-23T00:41:15.021Z,73.06
2023-03-23T00:42:15.011Z,72.31
2023-03-23T00:43:15.024Z,73.13
2023-03-23T00:44:14.990Z,73.97
2023-03-23T00:45:15.971Z,74.58
2023-03-23T00:46:14.999Z,75.60
2023-03-23T00:47:14.946Z,76.31
2023-03-23T00:48:14.944Z,76.96
2023-03-23T00:49:14.963Z,76.65
2023-03-23T00:50:14.930Z,76.45
2023-03-23T00:51:14.931Z,77.47
2023-03-23T00:52:14.933Z,77.81
2023-03-23T00:53:14.906Z,77.61
2023-03-23T00:54:14.900Z,78.42
2023-03-23T00:55:14.864Z,79.44
2023-03-23T00:56:14.919Z,80.70
2023-03-23T00:57:14.855Z,79.68
2023-03-23T00:58:14.877Z,80.80
2023-03-23T00:59:14.838Z,80.29
2023-03-23T01:00:14.815Z,79.58
2023-03-23T01:01:14.823Z,79.48
2023-03-23T01:02:14.819Z,79.17
2023-03-23T01:03:14.803Z,79.27
2023-03-23T01:04:14.770Z,79.58
2023-03-23T01:05:14.751Z,79.17
2023-03-23T01:06:14.740Z,78.77
2023-03-23T01:07:14.728Z,79.38
2023-03-23T01:08:14.737Z,79.07
2023-03-23T01:09:14.727Z,79.48
2023-03-23T01:10:14.693Z,79.79
2023-03-23T01:11:14.684Z,80.09
2023-03-23T01:12:14.697Z,79.52
2023-03-23T01:13:14.693Z,79.82
2023-03-23T01:14:15.024Z,80.74
2023-03-23T01:15:14.644Z,79.99
2023-03-23T01:16:14.645Z,81.25
2023-03-23T01:17:14.647Z,81.66
2023-03-23T01:18:14.636Z,82.17
2023-03-23T01:19:14.633Z,81.35
2023-03-23T01:20:15.636Z,82.31
2023-03-23T01:21:14.591Z,82.31
2023-03-23T01:22:14.567Z,81.45
2023-03-23T01:23:14.573Z,81.56
2023-03-23T01:24:14.550Z,81.96
2023-03-23T01:25:14.619Z,82.68
2023-03-23T01:26:14.520Z,82.07
2023-03-23T01:27:14.570Z,82.21
2023-03-23T01:28:14.538Z,82.00
2023-03-23T01:29:14.587Z,82.17
2023-03-23T01:30:14.492Z,82.31
2023-03-23T01:31:14.657Z,82.61
2023-03-23T01:32:14.448Z,83.53
2023-03-23T01:33:15.020Z,83.12
2023-03-23T01:34:14.434Z,83.84
2023-03-23T01:35:14.514Z,83.94
2023-03-23T01:36:14.642Z,83.94
2023-03-23T01:37:14.629Z,83.78
2023-03-23T01:38:14.518Z,83.94
2023-03-23T01:39:14.374Z,83.94
2023-03-23T01:40:14.438Z,84.28
2023-03-23T01:41:14.392Z,84.18
2023-03-23T01:42:14.999Z,85.00
2023-03-23T01:43:14.510Z,84.90
2023-03-23T01:44:14.369Z,84.49
2023-03-23T01:45:14.352Z,85.00
2023-03-23T01:46:14.293Z,84.80
2023-03-23T01:47:14.286Z,84.69
2023-03-23T01:48:15.004Z,85.00
2023-03-23T01:49:14.455Z,84.90
2023-03-23T01:50:14.423Z,84.59
2023-03-23T01:51:15.001Z,84.39
2023-03-23T01:52:14.471Z,84.39
2023-03-23T01:53:14.221Z,84.49
2023-03-23T01:54:14.326Z,84.49
2023-03-23T01:55:14.297Z,84.59
2023-03-23T01:56:14.534Z,85.10
2023-03-23T01:57:14.350Z,85.00
2023-03-23T01:58:14.529Z,83.98
2023-03-23T01:59:15.016Z,83.47
2023-03-23T02:00:14.424Z,84.08
2023-03-23T02:01:14.185Z,83.87
2023-03-23T02:02:14.159Z,84.08
2023-03-23T02:03:14.403Z,84.28
2023-03-23T02:04:15.088Z,84.39
2023-03-23T02:05:14.521Z,83.78
2023-03-23T02:06:14.469Z,83.67
2023-03-23T02:07:14.117Z,84.28
2023-03-23T02:08:14.059Z,83.26
2023-03-23T02:09:14.056Z,83.47
2023-03-23T02:10:14.040Z,83.98
2023-03-23T02:11:21.955Z,83.06
2023-03-23T02:12:15.003Z,83.16
2023-03-23T02:13:15.037Z,82.65
2023-03-23T02:14:14.302Z,82.35
2023-03-23T02:15:13.979Z,81.80
2023-03-23T02:16:14.516Z,81.90
2023-03-23T02:17:14.342Z,81.18
2023-03-23T02:18:13.993Z,81.39
2023-03-23T02:19:13.946Z,81.49
2023-03-23T02:20:13.944Z,80.88
2023-03-23T02:21:13.980Z,80.88
2023-03-23T02:22:13.915Z,81.80
2023-03-23T02:23:13.917Z,81.80
2023-03-23T02:24:14.056Z,81.09
2023-03-23T02:25:13.879Z,80.47
2023-03-23T02:26:13.850Z,81.09
2023-03-23T02:27:13.835Z,80.47
2023-03-23T02:28:13.863Z,80.13
2023-03-23T02:29:13.829Z,79.86
2023-03-23T02:30:13.804Z,78.91
2023-03-23T02:31:13.799Z,79.41
2023-03-23T02:32:13.986Z,79.52
2023-03-23T02:33:13.782Z,79.52
2023-03-23T02:34:13.787Z,79.11
2023-03-23T02:35:13.764Z,79.52
2023-03-23T02:36:13.737Z,79.11
2023-03-23T02:37:13.725Z,79.52
2023-03-23T02:38:13.724Z,79.52
2023-03-23T02:39:13.723Z,79.62
2023-03-23T02:40:13.733Z,79.21
2023-03-23T02:41:13.674Z,79.11
2023-03-23T02:42:15.548Z,78.97
2023-03-23T02:43:13.655Z,78.77
2023-03-23T02:44:13.675Z,78.87
2023-03-23T02:45:13.679Z,77.44
2023-03-23T02:46:13.622Z,78.66
2023-03-23T02:47:13.637Z,78.36
2023-03-23T02:48:13.609Z,78.46
2023-03-23T02:49:13.587Z,78.36
2023-03-23T02:50:13.588Z,78.70
2023-03-23T02:51:13.594Z,78.97
2023-03-23T02:52:13.598Z,78.26
2023-03-23T02:53:13.550Z,78.56
2023-03-23T02:54:13.538Z,78.36
2023-03-23T02:55:13.549Z,78.87
2023-03-23T02:56:13.538Z,78.97
2023-03-23T02:57:13.501Z,78.66
2023-03-23T02:58:13.510Z,79.38
2023-03-23T02:59:13.492Z,79.17
2023-03-23T03:00:13.470Z,79.72
2023-03-23T03:01:13.481Z,80.33
2023-03-23T03:02:13.479Z,82.37
2023-03-23T03:03:13.449Z,82.17
2023-03-23T03:04:13.551Z,82.61
2023-03-23T03:05:13.407Z,83.84
2023-03-23T03:06:13.404Z,83.53
2023-03-23T03:07:13.405Z,84.04
2023-03-23T03:08:13.411Z,85.10
2023-03-23T03:09:13.362Z,85.82
2023-03-23T03:10:13.354Z,85.82
2023-03-23T03:11:13.370Z,85.71
2023-03-23T03:12:13.345Z,86.53
2023-03-23T03:13:13.327Z,87.04
2023-03-23T03:14:13.418Z,87.18
2023-03-23T03:15:13.296Z,87.18
2023-03-23T03:16:13.307Z,87.38
2023-03-23T03:17:13.295Z,88.51
2023-03-23T03:18:13.272Z,88.82
2023-03-23T03:19:13.282Z,89.43
2023-03-23T03:20:13.248Z,89.67
2023-03-23T03:21:13.294Z,89.88
2023-03-23T03:22:13.220Z,90.19
2023-03-23T03:23:13.217Z,90.19
2023-03-23T03:24:13.224Z,90.19
2023-03-23T03:25:18.792Z,89.67
2023-03-23T03:26:15.027Z,90.08
2023-03-23T03:27:13.165Z,90.33
2023-03-23T03:28:13.156Z,90.74
2023-03-23T03:29:13.158Z,91.05
2023-03-23T03:30:13.147Z,90.23
2023-03-23T03:31:13.116Z,91.15
2023-03-23T03:32:13.114Z,91.05
2023-03-23T03:33:13.148Z,91.56
2023-03-23T03:34:13.120Z,91.76
2023-03-23T03:35:13.107Z,90.53
2023-03-23T03:36:13.138Z,91.76
2023-03-23T03:37:13.053Z,91.86
2023-03-23T03:38:13.055Z,91.86
2023-03-23T03:39:13.033Z,91.66
2023-03-23T03:40:13.062Z,91.56
2023-03-23T03:41:13.042Z,91.66
2023-03-23T03:42:13.000Z,91.86
2023-03-23T03:43:12.987Z,91.91
2023-03-23T03:44:13.008Z,92.21
2023-03-23T03:45:12.989Z,91.50
2023-03-23T03:46:12.989Z,91.76
2023-03-23T03:47:12.952Z,92.21
2023-03-23T03:48:12.966Z,92.07
2023-03-23T03:49:13.085Z,92.01
2023-03-23T03:50:12.934Z,92.62
2023-03-23T03:51:12.907Z,92.32
2023-03-23T03:52:12.894Z,92.01
2023-03-23T03:53:12.876Z,92.72
2023-03-23T03:54:12.886Z,91.91
2023-03-23T03:55:12.863Z,92.21
2023-03-23T03:56:12.851Z,92.42
2023-03-23T03:57:12.842Z,92.32
2023-03-23T03:58:12.836Z,92.52
2023-03-23T03:59:21.317Z,92.62
2023-03-23T04:00:13.802Z,92.52
2023-03-23T04:01:12.821Z,92.72
2023-03-23T04:02:12.776Z,93.07
2023-03-23T04:03:12.767Z,93.03
2023-03-23T04:04:12.782Z,92.62
2023-03-23T04:05:12.756Z,92.52
2023-03-23T04:06:12.737Z,92.25
2023-03-23T04:07:12.734Z,93.07
2023-03-23T04:08:12.738Z,92.21
2023-03-23T04:09:12.704Z,92.52
2023-03-23T04:10:12.716Z,92.97
2023-03-23T04:11:33.179Z,92.42
2023-03-23T04:12:13.672Z,92.72
2023-03-23T04:13:12.698Z,92.21
2023-03-23T04:14:12.655Z,93.07
2023-03-23T04:15:12.663Z,93.28
2023-03-23T04:16:12.626Z,93.69
2023-03-23T04:17:12.609Z,93.28
2023-03-23T04:18:12.614Z,93.59
2023-03-23T04:19:13.026Z,93.52
2023-03-23T04:20:12.588Z,93.38
2023-03-23T04:21:12.611Z,93.52
2023-03-23T04:22:12.555Z,93.89
2023-03-23T04:23:12.542Z,94.75
2023-03-23T04:24:23.228Z,94.65
2023-03-23T04:25:13.539Z,94.65
2023-03-23T04:26:12.560Z,94.24
2023-03-23T04:27:12.500Z,94.04
2023-03-23T04:28:12.489Z,94.14
2023-03-23T04:29:12.475Z,94.55
2023-03-23T04:30:12.458Z,94.45
2023-03-23T04:31:12.480Z,94.85
2023-03-23T04:32:12.461Z,94.65
2023-03-23T04:33:12.464Z,94.75
2023-03-23T04:34:13.441Z,95.67
2023-03-23T04:35:14.192Z,95.26
2023-03-23T04:36:12.431Z,95.51
2023-03-23T04:37:12.427Z,95.47
2023-03-23T04:38:12.373Z,95.41
2023-03-23T04:39:12.402Z,95.10
2023-03-23T04:40:12.349Z,95.41
2023-03-23T04:41:12.356Z,95.72
2023-03-23T04:42:12.332Z,95.72
2023-03-23T04:43:12.361Z,95.31
2023-03-23T04:44:12.304Z,95.51
2023-03-23T04:45:12.301Z,95.72
2023-03-23T04:46:12.297Z,95.92
2023-03-23T04:47:12.272Z,96.13
2023-03-23T04:48:12.270Z,95.92
2023-03-23T04:49:12.261Z,96.03
2023-03-23T04:50:12.269Z,95.82
2023-03-23T04:51:12.239Z,96.13
2023-03-23T04:52:12.242Z,96.19
2023-03-23T04:53:12.245Z,95.72
2023-03-23T04:54:12.209Z,95.72
2023-03-23T04:55:12.200Z,95.62
2023-03-23T04:56:12.222Z,95.82
2023-03-23T04:57:12.234Z,95.92
2023-03-23T04:58:12.167Z,96.03
2023-03-23T04:59:12.149Z,96.33
2023-03-23T05:00:12.133Z,96.03
2023-03-23T05:01:12.141Z,96.23
2023-03-23T05:02:14.579Z,95.92
2023-03-23T05:03:12.140Z,96.74
2023-03-23T05:04:12.078Z,96.99
2023-03-23T05:05:12.070Z,96.74
2023-03-23T05:06:12.089Z,96.84
2023-03-23T05:07:12.045Z,96.79
2023-03-23T05:08:12.037Z,96.64
2023-03-23T05:09:12.052Z,96.64
2023-03-23T05:10:12.040Z,96.74
2023-03-23T05:11:13.044Z,96.64
2023-03-23T05:12:12.011Z,96.74
2023-03-23T05:13:11.990Z,96.44
2023-03-23T05:14:11.964Z,96.54
2023-03-23T05:15:11.966Z,96.58
2023-03-23T05:16:11.977Z,96.33
2023-03-23T05:17:11.959Z,96.48
2023-03-23T05:18:11.927Z,96.64
2023-03-23T05:19:11.918Z,96.44
2023-03-23T05:20:11.958Z,96.48
2023-03-23T05:21:11.887Z,97.40
2023-03-23T05:22:11.881Z,97.40
2023-03-23T05:23:11.885Z,97.09
2023-03-23T05:24:11.857Z,97.09
2023-03-23T05:25:11.900Z,96.99
2023-03-23T05:26:11.848Z,96.89
2023-03-23T05:27:11.824Z,97.09
2023-03-23T05:28:11.813Z,97.09
2023-03-23T05:29:11.797Z,96.99
2023-03-23T05:30:11.819Z,96.89
2023-03-23T05:31:11.776Z,96.99
2023-03-23T05:32:11.771Z,96.79
2023-03-23T05:33:11.781Z,96.79
2023-03-23T05:34:11.769Z,96.99
2023-03-23T05:35:11.767Z,96.99
2023-03-23T05:36:11.730Z,96.79
2023-03-23T05:37:11.712Z,97.20
2023-03-23T05:38:11.723Z,96.99
2023-03-23T05:39:11.706Z,96.79
2023-03-23T05:40:11.691Z,96.69
2023-03-23T05:41:11.706Z,96.28
2023-03-23T05:42:11.659Z,96.69
2023-03-23T05:43:11.650Z,96.69
2023-03-23T05:44:11.632Z,96.79
2023-03-23T05:45:11.620Z,96.69
2023-03-23T05:46:11.607Z,96.89
2023-03-23T05:47:11.614Z,96.79
2023-03-23T05:48:11.607Z,96.73
2023-03-23T05:49:11.587Z,96.89
2023-03-23T05:50:11.564Z,96.79
2023-03-23T05:51:11.561Z,96.69
2023-03-23T05:52:11.536Z,96.89
2023-03-23T05:53:12.618Z,96.79
2023-03-23T05:54:11.519Z,96.79
2023-03-23T05:55:11.505Z,96.58
2023-03-23T05:56:11.489Z,96.79
2023-03-23T05:57:11.502Z,96.58
2023-03-23T05:58:11.511Z,96.79
2023-03-23T05:59:11.465Z,96.48
2023-03-23T06:00:11.455Z,96.48
2023-03-23T06:01:11.459Z,96.69
2023-03-23T06:02:12.427Z,96.69
2023-03-23T06:03:11.455Z,96.17
2023-03-23T06:04:11.416Z,96.23
2023-03-23T06:05:11.395Z,96.28
2023-03-23T06:06:11.516Z,96.17
2023-03-23T06:07:11.381Z,96.28
2023-03-23T06:08:11.370Z,96.07
2023-03-23T06:09:11.375Z,96.03
2023-03-23T06:10:11.331Z,95.97
2023-03-23T06:11:11.327Z,96.03
2023-03-23T06:12:11.315Z,95.82
2023-03-23T06:13:11.329Z,96.13
2023-03-23T06:14:12.305Z,95.72
2023-03-23T06:15:11.277Z,95.31
2023-03-23T06:16:11.270Z,95.51
2023-03-23T06:17:11.280Z,95.00
2023-03-23T06:18:11.244Z,94.80
2023-03-23T06:19:11.244Z,94.59
2023-03-23T06:20:11.221Z,94.80
2023-03-23T06:21:11.321Z,94.80
2023-03-23T06:23:21.979Z,94.45
2023-03-23T06:24:21.967Z,94.45
2023-03-23T06:25:21.964Z,94.75
2023-03-23T06:26:21.967Z,94.24
2023-03-23T06:27:21.941Z,93.73
2023-03-23T06:28:21.952Z,92.91
2023-03-23T06:29:21.938Z,93.43
2023-03-23T06:30:21.942Z,93.43
2023-03-23T06:31:21.909Z,93.52
2023-03-23T06:32:21.910Z,93.73
2023-03-23T06:33:21.913Z,92.66
2023-03-23T06:34:21.858Z,93.28
2023-03-23T06:35:21.882Z,92.77
2023-03-23T06:36:21.866Z,92.77
2023-03-23T06:37:21.819Z,92.25
2023-03-23T06:38:23.249Z,92.36
2023-03-23T06:39:21.838Z,92.72
2023-03-23T06:40:21.801Z,92.72
2023-03-23T06:41:21.782Z,92.52
2023-03-23T06:42:21.810Z,92.11
2023-03-23T06:43:21.763Z,92.32
2023-03-23T06:44:21.796Z,92.21
2023-03-23T06:45:21.746Z,92.17
2023-03-23T06:46:21.729Z,91.86
2023-03-23T06:47:21.748Z,91.60
2023-03-23T06:48:21.708Z,91.91
2023-03-23T06:49:22.222Z,92.47
2023-03-23T06:50:21.721Z,92.37
2023-03-23T06:51:21.674Z,92.17
2023-03-23T06:52:21.690Z,92.27
2023-03-23T06:53:21.670Z,92.27
2023-03-23T06:54:21.638Z,91.46
2023-03-23T06:55:21.641Z,91.25
2023-03-23T06:56:21.613Z,91.86
2023-03-23T06:57:21.609Z,91.86
2023-03-23T06:58:21.622Z,91.56
2023-03-23T06:59:21.584Z,91.82
2023-03-23T07:00:21.618Z,92.13
2023-03-23T07:01:21.568Z,90.70
2023-03-23T07:02:21.616Z,90.66
2023-03-23T07:03:21.550Z,90.75
2023-03-23T07:04:21.536Z,90.31
2023-03-23T07:05:21.533Z,89.79
2023-03-23T07:06:21.522Z,89.69
2023-03-23T07:07:21.514Z,89.90
2023-03-23T07:08:21.483Z,89.65
2023-03-23T07:09:25.610Z,89.75
2023-03-23T07:10:22.538Z,89.55
2023-03-23T07:11:21.487Z,90.26
2023-03-23T07:12:21.439Z,89.14
2023-03-23T07:13:21.453Z,88.06
2023-03-23T07:14:21.413Z,88.47
2023-03-23T07:15:21.407Z,88.37
2023-03-23T07:16:21.448Z,88.17
2023-03-23T07:17:21.410Z,88.06
2023-03-23T07:18:21.377Z,88.26
2023-03-23T07:19:21.358Z,88.98
2023-03-23T07:20:21.430Z,88.78
2023-03-23T07:21:21.343Z,87.76
2023-03-23T07:22:22.232Z,88.06
2023-03-23T07:23:21.343Z,88.78
2023-03-23T07:24:21.443Z,88.37
2023-03-23T07:25:21.292Z,88.88
2023-03-23T07:26:21.280Z,88.17
2023-03-23T07:27:21.303Z,88.47
2023-03-23T07:28:21.291Z,89.08
2023-03-23T07:29:21.291Z,88.88
2023-03-23T07:30:21.296Z,89.39
2023-03-23T07:31:21.287Z,88.98
2023-03-23T07:32:21.239Z,88.88
2023-03-23T07:33:21.210Z,88.71
2023-03-23T07:34:21.269Z,89.18
2023-03-23T07:35:21.188Z,89.32
2023-03-23T07:36:21.192Z,89.18
2023-03-23T07:37:21.201Z,89.39
2023-03-23T07:38:21.165Z,88.12
2023-03-23T07:39:21.127Z,88.84
2023-03-23T07:40:21.130Z,88.84
2023-03-23T07:41:21.146Z,89.25
2023-03-23T07:42:21.170Z,88.53
2023-03-23T07:43:21.094Z,88.32
2023-03-23T07:44:21.108Z,88.02
2023-03-23T07:45:21.111Z,88.02
2023-03-23T07:46:21.091Z,87.82
2023-03-23T07:47:21.066Z,87.82
2023-03-23T07:48:22.183Z,87.57
2023-03-23T07:49:21.029Z,87.77
2023-03-23T07:50:21.013Z,87.26
2023-03-23T07:51:21.011Z,87.26
2023-03-23T07:52:21.141Z,87.06
2023-03-23T07:53:21.036Z,86.35
2023-03-23T07:54:20.964Z,86.71
2023-03-23T07:55:20.967Z,86.00
2023-03-23T07:56:20.942Z,85.49
2023-03-23T07:57:21.009Z,85.86
2023-03-23T07:58:20.932Z,86.06
2023-03-23T07:59:20.909Z,85.92
2023-03-23T08:00:20.902Z,85.92
2023-03-23T08:01:20.915Z,85.61
2023-03-23T08:02:20.923Z,84.86
2023-03-23T08:03:21.169Z,84.56
2023-03-23T08:04:20.909Z,84.45
2023-03-23T08:05:20.841Z,84.15
2023-03-23T08:06:20.832Z,84.05
2023-03-23T08:07:20.825Z,84.35
2023-03-23T08:08:20.822Z,84.52
2023-03-23T08:09:20.824Z,83.95
2023-03-23T08:10:20.786Z,83.64
2023-03-23T08:11:20.773Z,83.84
2023-03-23T08:12:20.775Z,83.84
2023-03-23T08:13:20.796Z,83.91
2023-03-23T08:14:21.956Z,83.81
2023-03-23T08:15:20.760Z,83.20
2023-03-23T08:16:20.715Z,83.67
2023-03-23T08:17:20.704Z,83.87
2023-03-23T08:18:20.713Z,83.36
2023-03-23T08:19:20.709Z,83.22
2023-03-23T08:20:20.718Z,82.71
2023-03-23T08:21:20.659Z,82.14
2023-03-23T08:22:20.645Z,82.71
2023-03-23T08:23:20.653Z,83.53
2023-03-23T08:24:20.668Z,83.22
2023-03-23T08:25:20.621Z,83.12
2023-03-23T08:26:20.632Z,83.12
2023-03-23T08:27:20.648Z,82.61
2023-03-23T08:28:20.599Z,83.76
2023-03-23T08:29:20.594Z,83.36
2023-03-23T08:30:20.562Z,83.26
2023-03-23T08:31:20.568Z,83.40
2023-03-23T08:32:20.537Z,83.60
2023-03-23T08:33:20.538Z,83.46
2023-03-23T08:34:20.529Z,83.20
2023-03-23T08:35:20.499Z,83.40
2023-03-23T08:36:20.583Z,83.70
2023-03-23T08:37:20.483Z,82.99
2023-03-23T08:38:20.468Z,83.60
2023-03-23T08:39:20.523Z,83.60
2023-03-23T08:40:20.503Z,84.01
2023-03-23T08:41:20.433Z,83.60
2023-03-23T08:42:20.420Z,83.81
2023-03-23T08:43:20.437Z,83.36
2023-03-23T08:44:20.409Z,83.15
2023-03-23T08:45:20.401Z,83.36
2023-03-23T08:46:20.409Z,83.12
2023-03-23T08:47:21.175Z,83.15
2023-03-23T08:48:20.403Z,82.85
2023-03-23T08:49:20.367Z,83.36
2023-03-23T08:50:20.333Z,82.75
2023-03-23T08:51:20.363Z,83.32
2023-03-23T08:52:20.404Z,83.32
2023-03-23T08:53:20.297Z,82.71
2023-03-23T08:54:20.321Z,82.17
2023-03-23T08:55:21.359Z,82.57
2023-03-23T08:56:20.282Z,81.56
2023-03-23T08:57:20.272Z,81.49
2023-03-23T08:58:20.281Z,81.66
2023-03-23T08:59:20.306Z,82.06
2023-03-23T09:00:20.221Z,81.96
2023-03-23T09:01:20.269Z,81.56
2023-03-23T09:02:20.200Z,80.64
2023-03-23T09:03:20.205Z,80.84
2023-03-23T09:04:20.188Z,81.05
2023-03-23T09:05:20.197Z,80.68
2023-03-23T09:06:20.153Z,81.45
2023-03-23T09:07:20.153Z,80.94
2023-03-23T09:08:20.154Z,81.15
2023-03-23T09:09:20.120Z,80.54
2023-03-23T09:10:20.158Z,81.11
2023-03-23T09:11:20.117Z,80.60
2023-03-23T09:12:20.089Z,80.71
2023-03-23T09:13:20.101Z,80.91
2023-03-23T09:14:20.066Z,80.91
2023-03-23T09:15:23.954Z,80.54
2023-03-23T09:16:21.094Z,80.54
2023-03-23T09:17:20.047Z,80.03
2023-03-23T09:18:20.026Z,80.13
2023-03-23T09:19:20.033Z,80.54
2023-03-23T09:20:20.007Z,80.13
2023-03-23T09:21:20.039Z,80.60
2023-03-23T09:22:20.000Z,79.59
2023-03-23T09:23:20.990Z,80.66
2023-03-23T09:24:20.033Z,80.06
2023-03-23T09:25:19.982Z,78.84
2023-03-23T09:26:19.940Z,79.14
2023-03-23T09:27:19.943Z,78.94
2023-03-23T09:28:19.921Z,78.47
2023-03-23T09:29:19.907Z,79.55
2023-03-23T09:30:19.935Z,79.25
2023-03-23T09:31:20.889Z,78.84
2023-03-23T09:32:19.873Z,79.04
2023-03-23T09:33:19.873Z,78.84
2023-03-23T09:34:19.867Z,78.94
2023-03-23T09:35:19.838Z,78.94
2023-03-23T09:36:19.871Z,79.25
2023-03-23T09:37:19.832Z,78.30
2023-03-23T09:38:19.807Z,79.00
2023-03-23T09:39:19.846Z,78.70
2023-03-23T09:40:19.838Z,78.30
2023-03-23T09:41:19.792Z,78.64
2023-03-23T09:42:19.817Z,78.64
2023-03-23T09:43:19.786Z,78.37
2023-03-23T09:44:19.743Z,78.98
2023-03-23T09:45:19.753Z,79.65
2023-03-23T09:46:19.704Z,80.36
2023-03-23T09:47:19.732Z,78.94
2023-03-23T09:48:19.689Z,79.65
2023-03-23T09:49:19.683Z,78.88
2023-03-23T09:50:19.668Z,78.98
2023-03-23T09:51:19.675Z,78.88
2023-03-23T09:52:19.677Z,79.28
2023-03-23T09:53:20.518Z,79.38
2023-03-23T09:54:19.632Z,79.38
2023-03-23T09:55:19.634Z,79.08
2023-03-23T09:56:19.637Z,79.32
2023-03-23T09:57:19.590Z,79.28
2023-03-23T09:58:19.641Z,79.69
2023-03-23T09:59:19.565Z,79.38
2023-03-23T10:00:19.582Z,80.36
2023-03-23T10:01:19.550Z,78.98
2023-03-23T10:02:19.539Z,79.28
2023-03-23T10:03:19.553Z,79.49
2023-03-23T10:04:19.508Z,78.78
2023-03-23T10:05:19.506Z,79.49
2023-03-23T10:06:19.508Z,79.75
2023-03-23T10:07:19.512Z,80.30
2023-03-23T10:08:19.485Z,79.59
2023-03-23T10:09:19.457Z,79.38
2023-03-23T10:10:19.448Z,78.98
2023-03-23T10:11:19.471Z,78.98
2023-03-23T10:12:19.485Z,79.08
2023-03-23T10:13:19.429Z,78.78
2023-03-23T10:14:19.484Z,78.37
2023-03-23T10:15:19.418Z,78.17
2023-03-23T10:16:19.410Z,78.67
2023-03-23T10:17:19.441Z,78.88
2023-03-23T10:18:19.401Z,78.53
2023-03-23T10:19:19.386Z,78.84
2023-03-23T10:20:19.335Z,78.23
2023-03-23T10:21:19.364Z,77.79
2023-03-23T10:22:19.315Z,77.69
2023-03-23T10:23:19.313Z,77.89
2023-03-23T10:24:19.315Z,77.38
2023-03-23T10:25:19.294Z,77.89
2023-03-23T10:26:19.266Z,77.55
2023-03-23T10:27:19.285Z,78.16
2023-03-23T10:28:19.328Z,76.27
2023-03-23T10:29:19.274Z,75.76
2023-03-23T10:30:19.240Z,76.57
2023-03-23T10:31:19.249Z,77.18
2023-03-23T10:32:19.203Z,77.12
2023-03-23T10:33:19.219Z,77.62
2023-03-23T10:34:19.184Z,77.42
2023-03-23T10:35:19.177Z,77.52
2023-03-23T10:36:19.201Z,76.61
2023-03-23T10:37:19.187Z,77.32
2023-03-23T10:38:19.155Z,77.08
2023-03-23T10:39:19.124Z,77.42
2023-03-23T10:40:19.112Z,76.61
2023-03-23T10:41:19.128Z,76.57
2023-03-23T10:42:19.096Z,76.17
2023-03-23T10:43:19.125Z,76.91
2023-03-23T10:44:19.120Z,77.48
2023-03-23T10:45:19.091Z,77.14
2023-03-23T10:46:31.483Z,75.73
2023-03-23T10:47:20.064Z,75.73
2023-03-23T10:48:19.049Z,75.42
2023-03-23T10:49:19.041Z,75.22
2023-03-23T10:50:19.030Z,75.32
2023-03-23T10:51:19.001Z,74.48
2023-03-23T10:52:19.021Z,75.35
2023-03-23T10:53:18.979Z,73.83
2023-03-23T10:54:18.956Z,75.25
2023-03-23T10:55:18.990Z,74.40
2023-03-23T10:56:18.935Z,73.39
2023-03-23T10:57:18.963Z,73.05
2023-03-23T10:58:18.929Z,72.58
2023-03-23T10:59:18.935Z,72.78
2023-03-23T11:00:18.923Z,72.38
2023-03-23T11:01:18.880Z,73.02
2023-03-23T11:02:29.202Z,73.09
2023-03-23T11:03:19.870Z,73.09
2023-03-23T11:04:18.849Z,72.68
2023-03-23T11:05:20.370Z,73.93
2023-03-23T11:06:18.836Z,73.29
2023-03-23T11:07:18.817Z,72.55
2023-03-23T11:08:18.879Z,72.75
2023-03-23T11:09:18.790Z,73.12
2023-03-23T11:10:18.812Z,71.91
2023-03-23T11:11:18.777Z,72.34
2023-03-23T11:12:19.478Z,72.08
2023-03-23T11:13:18.747Z,72.68
2023-03-23T11:14:18.735Z,72.17
2023-03-23T11:15:18.764Z,72.17
2023-03-23T11:16:18.734Z,73.19
2023-03-23T11:17:18.700Z,73.59
2023-03-23T11:18:18.695Z,72.68
2023-03-23T11:19:18.687Z,72.17
2023-03-23T11:20:18.696Z,73.59
2023-03-23T11:21:18.659Z,72.72
2023-03-23T11:22:18.662Z,72.92
2023-03-23T11:23:18.645Z,73.32
2023-03-23T11:24:18.628Z,73.19
2023-03-23T11:25:18.997Z,73.90
2023-03-23T11:26:18.605Z,72.58
2023-03-23T11:27:18.601Z,73.12
2023-03-23T11:28:18.622Z,72.92
2023-03-23T11:29:18.573Z,72.92
2023-03-23T11:30:18.557Z,72.55
2023-03-23T11:31:18.564Z,72.75
2023-03-23T11:32:18.554Z,72.41
2023-03-23T11:33:18.537Z,72.41
2023-03-23T11:34:18.511Z,71.09
2023-03-23T11:35:18.501Z,70.96
2023-03-23T11:36:18.530Z,70.65
2023-03-23T11:37:18.498Z,71.47
2023-03-23T11:38:18.505Z,71.23
2023-03-23T11:39:18.477Z,70.09
2023-03-23T11:40:18.462Z,69.98
2023-03-23T11:41:18.435Z,69.18
2023-03-23T11:42:18.433Z,68.47
2023-03-23T11:43:18.405Z,70.09
2023-03-23T11:44:18.421Z,69.68
2023-03-23T11:45:18.389Z,68.40
2023-03-23T11:46:18.408Z,68.70
2023-03-23T11:47:18.429Z,69.41
2023-03-23T11:48:18.410Z,69.48
2023-03-23T11:49:25.407Z,69.89
2023-03-23T11:50:19.331Z,68.97
2023-03-23T11:51:18.320Z,68.67
2023-03-23T11:52:18.331Z,68.97
2023-03-23T11:53:18.299Z,67.86
2023-03-23T11:54:18.323Z,68.26
2023-03-23T11:55:18.315Z,68.43
2023-03-23T11:56:18.277Z,66.41
2023-03-23T11:57:18.251Z,66.52
2023-03-23T11:58:18.245Z,66.52
2023-03-23T11:59:18.262Z,66.99
2023-03-23T12:00:18.255Z,65.61
2023-03-23T12:01:19.517Z,66.21
2023-03-23T12:02:18.239Z,64.70
2023-03-23T12:03:18.190Z,64.79
2023-03-23T12:04:18.201Z,64.49
2023-03-23T12:05:18.181Z,64.39
2023-03-23T12:06:18.184Z,64.19
2023-03-23T12:07:18.177Z,64.76
2023-03-23T12:09:18.120Z,64.97
2023-03-23T12:10:25.403Z,64.50
2023-03-23T12:11:19.172Z,63.73
2023-03-23T12:12:18.110Z,63.73
2023-03-23T12:13:21.098Z,62.52
2023-03-23T12:14:18.229Z,62.70
2023-03-23T12:15:18.056Z,62.19
2023-03-23T12:16:18.043Z,61.92
2023-03-23T12:17:18.049Z,62.55
2023-03-23T12:18:18.060Z,62.55
2023-03-23T12:19:18.006Z,62.55
2023-03-23T12:20:18.015Z,63.09
2023-03-23T12:21:17.993Z,63.09
2023-03-23T12:22:26.081Z,62.99
2023-03-23T12:23:17.994Z,62.82
2023-03-23T12:24:18.092Z,63.59
2023-03-23T12:25:17.979Z,64.53
2023-03-23T12:26:17.954Z,65.07
2023-03-23T12:27:17.946Z,64.64
2023-03-23T12:28:17.946Z,64.73
2023-03-23T12:29:17.957Z,64.73
2023-03-23T12:30:17.906Z,65.11
2023-03-23T12:31:17.883Z,65.31
2023-03-23T12:32:17.907Z,64.84
2023-03-23T12:33:17.911Z,66.35
2023-03-23T12:34:17.864Z,66.35
2023-03-23T12:35:17.843Z,66.25
2023-03-23T12:36:17.942Z,66.69
2023-03-23T12:37:17.833Z,66.48
2023-03-23T12:38:17.807Z,66.92
2023-03-23T12:39:17.793Z,68.06
2023-03-23T12:40:17.776Z,68.26
2023-03-23T12:41:17.767Z,68.16
2023-03-23T12:42:17.816Z,68.26
2023-03-23T12:43:17.749Z,68.26
2023-03-23T12:44:17.736Z,68.97
2023-03-23T12:45:17.735Z,68.87
2023-03-23T12:46:17.822Z,68.47
2023-03-23T12:47:17.739Z,68.97
2023-03-23T12:48:17.712Z,68.87
2023-03-23T12:49:17.714Z,69.10
2023-03-23T12:50:17.680Z,69.21
2023-03-23T12:51:17.700Z,69.68
2023-03-23T12:52:17.686Z,68.84
2023-03-23T12:53:17.665Z,68.13
2023-03-23T12:54:17.623Z,68.54